createdAt,value
2022-11-09T00:01:03.768Z,30.20
2022-11-09T00:03:32.025Z,30.33
2022-11-09T00:06:01.965Z,29.93
2022-11-09T00:08:30.324Z,30.13
2022-11-09T00:11:04.081Z,29.53
2022-11-09T00:13:32.488Z,29.60
2022-11-09T00:16:00.568Z,29.10
2022-11-09T00:18:28.601Z,29.70
2022-11-09T00:20:57.209Z,30.07
2022-11-09T00:23:26.607Z,29.47
2022-11-09T00:25:54.684Z,30.03
2022-11-09T00:28:22.720Z,30.83
2022-11-09T00:30:50.798Z,28.93
2022-11-09T00:33:19.179Z,29.63
2022-11-09T00:35:47.455Z,49.00
2022-11-09T00:38:15.520Z,28.63
2022-11-09T00:40:44.952Z,29.13
2022-11-09T00:43:13.018Z,29.20
2022-11-09T00:45:41.381Z,28.97
2022-11-09T00:48:09.775Z,28.27
2022-11-09T00:50:37.856Z,26.87
2022-11-09T00:53:05.901Z,27.77
2022-11-09T00:55:33.985Z,27.13
2022-11-09T00:58:03.395Z,25.63
2022-11-09T01:00:31.416Z,26.17
2022-11-09T01:02:59.437Z,26.57
2022-11-09T01:05:27.523Z,27.10
2022-11-09T01:07:55.412Z,26.63
2022-11-09T01:10:23.503Z,28.07
2022-11-09T01:12:51.502Z,27.40
2022-11-09T01:15:20.948Z,28.00
2022-11-09T01:17:49.028Z,27.70
2022-11-09T01:20:17.468Z,27.27
2022-11-09T01:22:45.586Z,28.17
2022-11-09T01:25:13.618Z,29.53
2022-11-09T01:27:41.691Z,29.23
2022-11-09T01:30:10.299Z,29.63
2022-11-09T01:32:39.670Z,28.97
2022-11-09T01:35:08.264Z,29.53
2022-11-09T01:37:36.318Z,30.40
2022-11-09T01:40:05.199Z,32.07
2022-11-09T01:42:37.882Z,31.47
2022-11-09T01:45:27.666Z,31.83
2022-11-09T01:48:01.928Z,33.63
2022-11-09T01:50:35.756Z,34.60
2022-11-09T01:53:07.695Z,35.17
2022-11-09T01:55:36.393Z,36.67
2022-11-09T01:58:09.180Z,38.33
2022-11-09T02:00:39.081Z,39.83
2022-11-09T02:03:16.511Z,42.57
2022-11-09T02:05:45.760Z,40.90
2022-11-09T02:08:18.045Z,44.33
2022-11-09T02:10:51.717Z,45.80
2022-11-09T02:13:22.554Z,45.07
2022-11-09T02:15:51.867Z,46.27
2022-11-09T02:18:21.639Z,46.87
2022-11-09T02:20:53.277Z,49.63
2022-11-09T02:23:22.317Z,48.50
2022-11-09T02:25:54.020Z,49.40
2022-11-09T02:28:22.617Z,48.73
2022-11-09T02:30:54.912Z,49.73
2022-11-09T02:33:23.854Z,48.07
2022-11-09T02:35:53.288Z,47.87
2022-11-09T02:38:21.345Z,46.67
2022-11-09T02:40:52.449Z,46.90
2022-11-09T02:43:21.359Z,46.60
2022-11-09T02:45:49.724Z,46.80
2022-11-09T02:48:17.992Z,46.90
2022-11-09T02:50:46.052Z,46.43
2022-11-09T02:53:15.481Z,47.37
2022-11-09T02:55:43.520Z,45.50
2022-11-09T02:58:11.617Z,46.03
2022-11-09T03:00:39.672Z,46.27
2022-11-09T03:03:07.851Z,45.13
2022-11-09T03:05:35.920Z,43.67
2022-11-09T03:08:03.856Z,44.40
2022-11-09T03:10:33.226Z,42.40
2022-11-09T03:13:01.431Z,42.37
2022-11-09T03:15:29.427Z,39.70
2022-11-09T03:17:58.047Z,39.73
2022-11-09T03:20:26.102Z,38.63
2022-11-09T03:22:58.667Z,38.90
2022-11-09T03:25:27.085Z,40.10
2022-11-09T03:28:00.291Z,38.77
2022-11-09T03:30:28.940Z,39.83
2022-11-09T03:33:00.673Z,37.87
2022-11-09T03:35:30.879Z,37.53
2022-11-09T03:37:58.943Z,37.37
2022-11-09T03:40:27.067Z,36.40
2022-11-09T03:42:55.140Z,37.73
2022-11-09T03:45:24.826Z,38.10
2022-11-09T03:47:54.856Z,39.27
2022-11-09T03:50:22.915Z,37.90
2022-11-09T03:52:51.028Z,38.50
2022-11-09T03:55:19.451Z,38.17
2022-11-09T03:57:47.861Z,37.23
2022-11-09T04:00:21.634Z,37.67
2022-11-09T04:02:51.401Z,37.07
2022-11-09T04:05:20.148Z,37.53
2022-11-09T04:07:49.315Z,37.33
2022-11-09T04:10:17.965Z,36.47
2022-11-09T04:12:46.690Z,37.00
2022-11-09T04:15:15.409Z,37.03
2022-11-09T04:17:44.715Z,36.47
2022-11-09T04:20:14.203Z,40.63
2022-11-09T04:22:42.225Z,36.93
2022-11-09T04:25:10.432Z,36.33
2022-11-09T04:27:38.483Z,40.37
2022-11-09T04:30:07.576Z,37.63
2022-11-09T04:32:35.616Z,35.07
2022-11-09T04:35:04.184Z,35.33
2022-11-09T04:37:33.604Z,36.27
2022-11-09T04:40:01.682Z,36.93
2022-11-09T04:42:29.703Z,37.13
2022-11-09T04:44:57.728Z,37.77
2022-11-09T04:47:25.804Z,37.50
2022-11-09T04:49:53.858Z,39.67
2022-11-09T04:52:21.966Z,38.00
2022-11-09T04:54:51.346Z,39.77
2022-11-09T04:57:19.440Z,38.87
2022-11-09T04:59:47.483Z,41.73
2022-11-09T05:02:15.661Z,42.43
2022-11-09T05:04:44.196Z,41.23
2022-11-09T05:07:12.166Z,42.17
2022-11-09T05:09:40.342Z,42.47
2022-11-09T05:12:09.991Z,42.93
2022-11-09T05:14:38.866Z,43.40
2022-11-09T05:17:08.748Z,45.50
2022-11-09T05:19:37.038Z,43.70
2022-11-09T05:22:19.015Z,44.17
2022-11-09T05:24:47.068Z,45.57
2022-11-09T05:27:16.512Z,46.20
2022-11-09T05:29:44.669Z,45.77
2022-11-09T05:32:12.705Z,45.03
2022-11-09T05:34:40.753Z,44.23
2022-11-09T05:37:08.858Z,44.80
2022-11-09T05:39:36.922Z,44.37
2022-11-09T05:42:05.108Z,42.50
2022-11-09T05:44:34.574Z,45.70
2022-11-09T05:47:02.661Z,47.50
2022-11-09T05:49:30.814Z,47.77
2022-11-09T05:51:58.930Z,44.70
2022-11-09T05:54:26.973Z,49.47
2022-11-09T05:56:55.107Z,45.63
2022-11-09T05:59:23.168Z,47.93
2022-11-09T06:01:52.601Z,45.70
2022-11-09T06:04:20.788Z,47.40
2022-11-09T06:06:48.941Z,47.53
2022-11-09T06:09:17.104Z,47.67
2022-11-09T06:11:45.421Z,48.60
2022-11-09T06:14:13.755Z,50.87
2022-11-09T06:16:41.797Z,51.47
2022-11-09T06:19:11.444Z,52.10
2022-11-09T06:21:39.468Z,52.00
2022-11-09T06:24:08.274Z,54.10
2022-11-09T06:26:36.361Z,52.60
2022-11-09T06:29:04.832Z,53.97
2022-11-09T06:31:32.983Z,54.73
2022-11-09T06:34:01.198Z,53.00
2022-11-09T06:36:30.585Z,55.57
2022-11-09T06:38:58.650Z,58.50
2022-11-09T06:41:26.720Z,56.10
2022-11-09T06:43:54.785Z,55.73
2022-11-09T06:46:22.841Z,55.47
2022-11-09T06:48:54.498Z,54.40
2022-11-09T06:51:22.833Z,53.90
2022-11-09T06:53:52.308Z,51.90
2022-11-09T06:56:20.526Z,51.27
2022-11-09T06:58:49.122Z,51.50
2022-11-09T07:01:19.147Z,50.13
2022-11-09T07:03:47.258Z,51.60
2022-11-09T07:06:15.466Z,52.47
2022-11-09T07:08:43.496Z,52.13
2022-11-09T07:11:16.182Z,50.40
2022-11-09T07:13:44.317Z,47.33
2022-11-09T07:16:12.951Z,47.80
2022-11-09T07:18:41.164Z,50.07
2022-11-09T07:21:14.023Z,50.60
2022-11-09T07:23:43.414Z,52.67
2022-11-09T07:26:12.847Z,51.97
2022-11-09T07:28:41.329Z,50.10
2022-11-09T07:31:10.224Z,51.63
2022-11-09T07:33:38.658Z,50.97
2022-11-09T07:36:07.839Z,52.67
2022-11-09T07:38:35.932Z,52.20
2022-11-09T07:41:04.163Z,49.67
2022-11-09T07:43:33.623Z,51.07
2022-11-09T07:46:04.753Z,48.37
2022-11-09T07:48:32.891Z,48.97
2022-11-09T07:51:02.521Z,50.57
2022-11-09T07:53:30.637Z,51.00
2022-11-09T07:55:59.160Z,51.67
2022-11-09T07:58:27.421Z,49.30
2022-11-09T08:00:58.107Z,49.60
2022-11-09T08:03:26.967Z,47.43
2022-11-09T08:05:57.308Z,50.33
2022-11-09T08:08:25.456Z,48.07
2022-11-09T08:10:53.645Z,48.33
2022-11-09T08:13:22.045Z,48.83
2022-11-09T08:15:50.421Z,46.23
2022-11-09T08:18:22.855Z,47.37
2022-11-09T08:20:51.242Z,45.97
2022-11-09T08:23:21.845Z,45.07
2022-11-09T08:25:50.876Z,45.30
2022-11-09T08:28:19.316Z,43.27
2022-11-09T08:30:55.882Z,40.87
2022-11-09T08:33:25.800Z,41.53
2022-11-09T08:35:53.961Z,39.13
2022-11-09T08:38:22.586Z,36.83
2022-11-09T08:40:50.878Z,34.83
2022-11-09T08:43:20.003Z,34.00
2022-11-09T08:45:49.141Z,32.80
2022-11-09T08:48:17.356Z,31.90
2022-11-09T08:50:46.987Z,30.13
2022-11-09T08:53:15.080Z,29.97
2022-11-09T08:55:48.368Z,29.33
2022-11-09T08:58:18.052Z,28.20
2022-11-09T09:00:46.681Z,27.90
2022-11-09T09:03:14.779Z,26.80
2022-11-09T09:05:42.977Z,25.13
2022-11-09T09:08:15.330Z,24.60
2022-11-09T09:10:43.481Z,24.70
2022-11-09T09:13:11.587Z,23.77
2022-11-09T09:15:39.716Z,23.57
2022-11-09T09:18:08.107Z,23.70
2022-11-09T09:20:36.251Z,24.00
2022-11-09T09:23:04.545Z,23.83
2022-11-09T09:25:34.067Z,25.97
2022-11-09T09:28:02.205Z,22.63
2022-11-09T09:30:30.339Z,22.50
2022-11-09T09:33:01.633Z,21.20
2022-11-09T09:35:30.107Z,22.50
2022-11-09T09:37:58.582Z,21.30
2022-11-09T09:40:32.748Z,21.30
2022-11-09T09:43:02.196Z,20.63
2022-11-09T09:45:34.449Z,20.63
2022-11-09T09:48:12.684Z,20.40
2022-11-09T09:50:49.920Z,20.23
2022-11-09T09:53:25.105Z,20.70
2022-11-09T09:55:57.111Z,21.17
2022-11-09T09:58:28.883Z,19.83
2022-11-09T10:01:00.457Z,19.90
2022-11-09T10:03:28.597Z,19.87
2022-11-09T10:06:02.959Z,20.17
2022-11-09T10:08:48.225Z,19.60
2022-11-09T10:11:27.139Z,19.03
2022-11-09T10:14:27.842Z,19.60
2022-11-09T10:17:05.507Z,19.50
2022-11-09T10:19:46.628Z,19.47
2022-11-09T10:22:22.416Z,18.77
2022-11-09T10:25:20.871Z,18.70
2022-11-09T10:27:52.590Z,18.17
2022-11-09T10:30:24.280Z,20.67
2022-11-09T10:32:56.569Z,18.67
2022-11-09T10:35:30.415Z,18.20
2022-11-09T10:37:58.499Z,18.57
2022-11-09T10:40:31.042Z,18.50
2022-11-09T10:43:01.843Z,18.40
2022-11-09T10:45:33.499Z,18.50
2022-11-09T10:48:02.923Z,17.87
2022-11-09T10:50:34.985Z,18.20
2022-11-09T10:53:11.824Z,18.73
2022-11-09T10:55:40.031Z,18.80
2022-11-09T10:58:23.092Z,18.50
2022-11-09T11:01:05.234Z,18.40
2022-11-09T11:03:36.667Z,19.83
2022-11-09T11:06:06.735Z,18.10
2022-11-09T11:08:41.122Z,18.00
2022-11-09T11:11:33.636Z,18.67
2022-11-09T11:14:15.834Z,18.50
2022-11-09T11:16:48.380Z,19.30
2022-11-09T11:19:35.211Z,19.27
2022-11-09T11:22:22.779Z,17.90
2022-11-09T11:24:59.383Z,18.17
2022-11-09T11:27:34.127Z,18.23
2022-11-09T11:30:07.570Z,18.30
2022-11-09T11:32:36.992Z,17.73
2022-11-09T11:35:06.535Z,18.07
2022-11-09T11:37:50.650Z,20.03
2022-11-09T11:40:28.186Z,26.13
2022-11-09T11:43:23.778Z,18.50
2022-11-09T11:46:02.405Z,18.20
2022-11-09T11:48:54.410Z,17.87
2022-11-09T11:51:32.305Z,18.17
2022-11-09T11:54:10.483Z,17.77
2022-11-09T11:56:44.399Z,18.13
2022-11-09T11:59:38.875Z,19.00
2022-11-09T12:02:28.424Z,19.27
2022-11-09T12:05:32.969Z,19.00
2022-11-09T12:08:09.207Z,19.40
2022-11-09T12:10:49.511Z,21.17
2022-11-09T12:13:38.820Z,19.30
2022-11-09T12:16:13.029Z,19.53
2022-11-09T12:18:53.525Z,19.27
2022-11-09T12:21:28.713Z,20.13
2022-11-09T12:24:14.361Z,18.60
2022-11-09T12:27:25.634Z,20.73
2022-11-09T12:29:57.826Z,18.60
2022-11-09T12:32:32.626Z,19.50
2022-11-09T12:35:16.487Z,18.20
2022-11-09T12:37:51.618Z,19.87
2022-11-09T12:40:24.911Z,18.70
2022-11-09T12:43:00.538Z,18.67
2022-11-09T12:45:33.323Z,19.70
2022-11-09T12:48:07.350Z,18.10
2022-11-09T12:50:35.620Z,19.27
2022-11-09T12:53:04.785Z,18.90
2022-11-09T12:55:44.448Z,18.40
2022-11-09T12:58:23.549Z,18.60
2022-11-09T13:00:54.801Z,18.40
2022-11-09T13:03:25.843Z,18.37
2022-11-09T13:06:12.567Z,20.70
2022-11-09T13:08:42.260Z,19.00
2022-11-09T13:11:19.982Z,18.40
2022-11-09T13:13:48.085Z,18.40
2022-11-09T13:16:36.346Z,18.07
2022-11-09T13:19:04.627Z,18.60
2022-11-09T13:21:38.600Z,17.80
2022-11-09T13:24:54.895Z,20.17
2022-11-09T13:27:40.515Z,18.13
2022-11-09T13:30:40.747Z,18.03
2022-11-09T13:33:20.969Z,18.60
2022-11-09T13:36:14.614Z,17.90
2022-11-09T13:38:43.069Z,17.90
2022-11-09T13:41:43.786Z,18.20
2022-11-09T13:44:34.470Z,18.37
2022-11-09T13:47:06.428Z,18.20
2022-11-09T13:49:44.844Z,17.80
2022-11-09T13:52:51.514Z,18.60
2022-11-09T13:55:37.132Z,18.60
2022-11-09T13:58:14.152Z,17.87
2022-11-09T14:00:48.263Z,18.20
2022-11-09T14:03:22.573Z,18.10
2022-11-09T14:05:53.702Z,18.70
2022-11-09T14:08:24.831Z,18.33
2022-11-09T14:11:34.063Z,18.23
2022-11-09T14:14:21.205Z,19.40
2022-11-09T14:17:00.441Z,18.40
2022-11-09T14:19:36.049Z,18.30
2022-11-09T14:22:04.016Z,18.10
2022-11-09T14:24:33.625Z,18.20
2022-11-09T14:27:03.681Z,17.83
2022-11-09T14:29:33.173Z,18.37
2022-11-09T14:32:04.106Z,18.67
2022-11-09T14:34:32.000Z,18.67
2022-11-09T14:37:04.731Z,18.47
2022-11-09T14:39:35.362Z,18.33
2022-11-09T14:42:03.324Z,18.70
2022-11-09T14:44:35.775Z,18.73
2022-11-09T14:47:06.875Z,18.60
2022-11-09T14:49:34.908Z,18.20
2022-11-09T14:52:03.758Z,18.20
2022-11-09T14:54:32.017Z,18.17
2022-11-09T14:57:02.101Z,18.50
2022-11-09T14:59:32.950Z,18.63
2022-11-09T15:02:05.758Z,18.50
2022-11-09T15:04:52.020Z,18.57
2022-11-09T15:07:22.650Z,19.37
2022-11-09T15:09:54.032Z,18.67
2022-11-09T15:12:22.971Z,17.87
2022-11-09T15:14:53.430Z,19.70
2022-11-09T15:17:26.648Z,19.30
2022-11-09T15:19:56.893Z,18.50
2022-11-09T15:22:49.200Z,18.10
2022-11-09T15:25:24.094Z,18.30
2022-11-09T15:28:01.784Z,19.93
2022-11-09T15:30:35.974Z,18.93
2022-11-09T15:33:24.337Z,18.70
2022-11-09T15:35:55.341Z,19.33
2022-11-09T15:38:35.402Z,18.90
2022-11-09T15:41:04.884Z,17.87
2022-11-09T15:43:33.068Z,19.10
2022-11-09T15:46:02.218Z,18.87
2022-11-09T15:48:32.396Z,19.57
2022-11-09T15:51:01.033Z,19.37
2022-11-09T15:53:29.238Z,20.30
2022-11-09T15:55:57.470Z,19.27
2022-11-09T15:58:25.690Z,19.30
2022-11-09T16:00:54.118Z,19.23
2022-11-09T16:03:22.273Z,19.70
2022-11-09T16:05:51.738Z,19.53
2022-11-09T16:08:20.102Z,19.90
2022-11-09T16:10:48.375Z,20.17
2022-11-09T16:13:16.393Z,20.90
2022-11-09T16:15:44.526Z,21.30
2022-11-09T16:18:12.582Z,21.47
2022-11-09T16:20:41.174Z,24.03
2022-11-09T16:23:10.630Z,24.90
2022-11-09T16:25:38.741Z,24.67
2022-11-09T16:28:07.118Z,25.17
2022-11-09T16:30:35.338Z,26.50
2022-11-09T16:33:03.480Z,26.10
2022-11-09T16:35:31.629Z,26.70
2022-11-09T16:38:00.305Z,25.53
2022-11-09T16:40:31.745Z,26.37
2022-11-09T16:43:01.803Z,26.60
2022-11-09T16:45:33.436Z,27.03
2022-11-09T16:48:05.076Z,33.47
2022-11-09T16:50:33.158Z,26.80
2022-11-09T16:53:01.270Z,27.00
2022-11-09T16:55:30.679Z,26.37
2022-11-09T16:57:58.806Z,26.60
2022-11-09T17:00:42.518Z,27.03
2022-11-09T17:03:15.831Z,27.87
2022-11-09T17:05:44.358Z,27.50
2022-11-09T17:08:13.043Z,26.50
2022-11-09T17:10:47.063Z,27.10
2022-11-09T17:13:15.484Z,26.10
2022-11-09T17:15:44.952Z,25.53
2022-11-09T17:18:13.289Z,26.60
2022-11-09T17:20:44.648Z,26.20
2022-11-09T17:23:13.114Z,27.20
2022-11-09T17:25:41.889Z,25.63
2022-11-09T17:28:11.418Z,26.53
2022-11-09T17:30:42.140Z,25.38
2022-11-09T17:33:10.254Z,26.10
2022-11-09T17:35:38.354Z,24.93
2022-11-09T17:38:06.578Z,25.00
2022-11-09T17:40:34.750Z,24.80
2022-11-09T17:43:02.895Z,24.50
2022-11-09T17:45:32.814Z,24.57
2022-11-09T17:48:01.797Z,25.00
2022-11-09T17:50:29.913Z,25.17
2022-11-09T17:52:58.068Z,26.07
2022-11-09T17:55:26.155Z,29.10
2022-11-09T17:57:54.320Z,26.20
2022-11-09T18:00:23.445Z,25.77
2022-11-09T18:02:55.574Z,25.43
2022-11-09T18:05:23.758Z,26.07
2022-11-09T18:07:51.670Z,25.43
2022-11-09T18:10:19.875Z,26.13
2022-11-09T18:12:48.116Z,25.33
2022-11-09T18:15:16.450Z,25.43
2022-11-09T18:17:44.819Z,25.87
2022-11-09T18:20:14.746Z,25.97
2022-11-09T18:22:42.891Z,26.27
2022-11-09T18:25:11.836Z,26.00
2022-11-09T18:27:39.955Z,26.33
2022-11-09T18:30:09.440Z,27.83
2022-11-09T18:32:37.651Z,26.90
2022-11-09T18:35:06.786Z,26.33
2022-11-09T18:37:37.239Z,27.97
2022-11-09T18:40:06.095Z,28.13
2022-11-09T18:42:34.561Z,27.87
2022-11-09T18:45:02.680Z,28.20
2022-11-09T18:47:30.836Z,27.27
2022-11-09T18:49:58.958Z,26.70
2022-11-09T18:52:27.060Z,28.07
2022-11-09T18:54:57.049Z,28.27
2022-11-09T18:57:25.210Z,30.70
2022-11-09T18:59:53.342Z,32.97
2022-11-09T19:02:21.623Z,33.43
2022-11-09T19:04:49.880Z,33.77
2022-11-09T19:07:18.289Z,33.77
2022-11-09T19:09:46.346Z,36.10
2022-11-09T19:12:16.044Z,36.87
2022-11-09T19:14:44.738Z,35.37
2022-11-09T19:17:14.643Z,35.20
2022-11-09T19:19:43.321Z,37.83
2022-11-09T19:22:16.909Z,37.17
2022-11-09T19:24:46.345Z,36.93
2022-11-09T19:27:15.813Z,37.07
2022-11-09T19:29:43.949Z,39.87
2022-11-09T19:32:12.083Z,42.83
2022-11-09T19:34:42.585Z,48.13
2022-11-09T19:37:10.987Z,48.80
2022-11-09T19:39:43.030Z,52.27
2022-11-09T19:42:11.774Z,51.37
2022-11-09T19:44:41.234Z,53.70
2022-11-09T19:47:09.447Z,53.10
2022-11-09T19:49:37.694Z,53.33
2022-11-09T19:52:06.208Z,51.33
2022-11-09T19:54:34.279Z,53.77
2022-11-09T19:57:02.406Z,52.33
2022-11-09T19:59:30.511Z,54.67
2022-11-09T20:02:00.068Z,54.83
2022-11-09T20:04:28.325Z,52.50
2022-11-09T20:06:56.575Z,54.80
2022-11-09T20:09:24.662Z,52.80
2022-11-09T20:12:11.690Z,52.87
2022-11-09T20:14:39.746Z,53.17
2022-11-09T20:17:09.229Z,52.47
2022-11-09T20:19:37.353Z,54.10
2022-11-09T20:22:05.870Z,55.20
2022-11-09T20:24:33.977Z,55.67
2022-11-09T20:27:02.043Z,56.07
2022-11-09T20:29:30.073Z,56.47
2022-11-09T20:31:58.216Z,54.67
2022-11-09T20:34:29.625Z,55.40
2022-11-09T20:36:57.750Z,56.70
2022-11-09T20:39:25.859Z,56.07
2022-11-09T20:41:53.980Z,56.47
2022-11-09T20:44:22.006Z,58.10
2022-11-09T20:46:50.079Z,60.57
2022-11-09T20:49:18.221Z,58.33
2022-11-09T20:51:47.587Z,62.07
2022-11-09T20:54:15.619Z,60.07
2022-11-09T20:56:44.308Z,58.43
2022-11-09T20:59:12.496Z,58.33
2022-11-09T21:01:40.805Z,58.67
2022-11-09T21:04:08.862Z,59.13
2022-11-09T21:06:37.017Z,62.17
2022-11-09T21:09:06.581Z,61.00
2022-11-09T21:11:57.298Z,60.57
2022-11-09T21:14:25.564Z,61.10
2022-11-09T21:16:53.667Z,60.27
2022-11-09T21:19:21.758Z,64.67
2022-11-09T21:21:49.805Z,63.90
2022-11-09T21:24:36.658Z,66.20
2022-11-09T21:27:21.921Z,65.10
2022-11-09T21:29:52.721Z,66.47
2022-11-09T21:32:21.945Z,68.20
2022-11-09T21:34:50.315Z,68.23
2022-11-09T21:37:18.607Z,66.03
2022-11-09T21:39:48.097Z,64.20
2022-11-09T21:42:16.269Z,65.67
2022-11-09T21:44:44.350Z,64.03
2022-11-09T21:47:12.435Z,66.63
2022-11-09T21:49:40.660Z,65.33
2022-11-09T21:52:08.655Z,65.50
2022-11-09T21:54:36.763Z,66.57
2022-11-09T21:57:06.392Z,66.53
2022-11-09T21:59:34.448Z,66.20
2022-11-09T22:02:02.499Z,64.03
2022-11-09T22:04:30.545Z,64.13
2022-11-09T22:06:58.688Z,63.93
2022-11-09T22:09:29.806Z,63.80
2022-11-09T22:12:27.466Z,65.20
2022-11-09T22:15:12.868Z,67.60
2022-11-09T22:17:41.026Z,67.67
2022-11-09T22:20:27.695Z,70.90
2022-11-09T22:22:55.861Z,72.67
2022-11-09T22:25:23.952Z,73.47
2022-11-09T22:27:53.381Z,74.20
2022-11-09T22:30:21.558Z,71.93
2022-11-09T22:32:49.561Z,69.07
2022-11-09T22:35:17.786Z,73.87
2022-11-09T22:37:45.863Z,73.30
2022-11-09T22:40:14.117Z,72.90
2022-11-09T22:42:42.182Z,72.50
2022-11-09T22:45:11.990Z,75.00
2022-11-09T22:47:40.063Z,72.37
2022-11-09T22:50:08.642Z,74.40
2022-11-09T22:52:36.741Z,75.63
2022-11-09T22:55:05.090Z,74.07
2022-11-09T22:57:33.405Z,77.73
2022-11-09T23:00:01.473Z,75.17
2022-11-09T23:02:31.269Z,74.73
2022-11-09T23:04:59.379Z,74.67
2022-11-09T23:07:27.264Z,72.50
2022-11-09T23:09:55.284Z,73.40
2022-11-09T23:12:23.340Z,73.67
2022-11-09T23:15:06.798Z,77.03
2022-11-09T23:17:54.561Z,76.17
2022-11-09T23:20:23.049Z,74.90
2022-11-09T23:22:51.090Z,77.23
2022-11-09T23:25:36.676Z,75.70
2022-11-09T23:28:05.355Z,78.43
2022-11-09T23:30:33.414Z,79.17
2022-11-09T23:33:03.594Z,78.87
2022-11-09T23:35:31.627Z,82.43
2022-11-09T23:38:00.356Z,81.27
2022-11-09T23:40:28.945Z,83.53
2022-11-09T23:43:01.096Z,81.63
2022-11-09T23:45:29.473Z,82.03
2022-11-09T23:47:58.136Z,85.33
2022-11-09T23:50:27.997Z,80.83
2022-11-09T23:52:57.226Z,82.00
2022-11-09T23:55:25.672Z,79.97
2022-11-09T23:57:53.704Z,80.87
